sensor_id;sensor_type;location;lat;lon;timestamp;P1;durP1;ratioP1;P2;durP2;ratioP2
78181;SDS011;67441;50.116;8.696;2023-06-24T00:00:36;8.70;;;5.05;;
78181;SDS011;67441;50.116;8.696;2023-06-24T00:01:28;6.50;;;5.43;;
78181;SDS011;67441;50.116;8.696;2023-06-24T00:02:18;10.00;;;5.18;;
78181;SDS011;67441;50.116;8.696;2023-06-24T00:03:10;6.78;;;4.85;;
78181;SDS011;67441;50.116;8.696;2023-06-24T00:03:42;5.82;;;4.65;;
78181;SDS011;67441;50.116;8.696;2023-06-24T00:04:11;6.68;;;5.15;;
78181;SDS011;67441;50.116;8.696;2023-06-24T00:04:39;6.30;;;4.90;;
78181;SDS011;67441;50.116;8.696;2023-06-24T00:05:31;7.03;;;5.20;;
78181;SDS011;67441;50.116;8.696;2023-06-24T00:06:22;6.75;;;5.40;;
78181;SDS011;67441;50.116;8.696;2023-06-24T00:06:50;6.82;;;5.18;;
78181;SDS011;67441;50.116;8.696;2023-06-24T00:07:17;6.03;;;5.05;;
78181;SDS011;67441;50.116;8.696;2023-06-24T00:08:10;7.20;;;4.82;;
78181;SDS011;67441;50.116;8.696;2023-06-24T00:09:01;8.13;;;6.15;;
78181;SDS011;67441;50.116;8.696;2023-06-24T00:09:52;6.78;;;5.40;;
78181;SDS011;67441;50.116;8.696;2023-06-24T00:10:43;6.70;;;5.22;;
78181;SDS011;67441;50.116;8.696;2023-06-24T00:11:33;6.65;;;5.00;;
78181;SDS011;67441;50.116;8.696;2023-06-24T00:12:24;5.82;;;4.90;;
78181;SDS011;67441;50.116;8.696;2023-06-24T00:13:15;7.03;;;5.53;;
78181;SDS011;67441;50.116;8.696;2023-06-24T00:14:07;6.43;;;5.05;;
78181;SDS011;67441;50.116;8.696;2023-06-24T00:14:58;6.90;;;5.05;;
78181;SDS011;67441;50.116;8.696;2023-06-24T00:15:48;6.95;;;4.60;;
78181;SDS011;67441;50.116;8.696;2023-06-24T00:16:39;6.40;;;5.00;;
78181;SDS011;67441;50.116;8.696;2023-06-24T00:17:06;7.03;;;5.05;;
78181;SDS011;67441;50.116;8.696;2023-06-24T00:17:57;6.82;;;5.25;;
78181;SDS011;67441;50.116;8.696;2023-06-24T00:18:30;6.22;;;4.88;;
78181;SDS011;67441;50.116;8.696;2023-06-24T00:19:25;7.55;;;5.50;;
78181;SDS011;67441;50.116;8.696;2023-06-24T00:19:51;6.97;;;5.43;;
78181;SDS011;67441;50.116;8.696;2023-06-24T00:20:19;6.00;;;4.82;;
78181;SDS011;67441;50.116;8.696;2023-06-24T00:21:10;7.38;;;5.47;;
78181;SDS011;67441;50.116;8.696;2023-06-24T00:22:02;7.18;;;5.25;;
78181;SDS011;67441;50.116;8.696;2023-06-24T00:22:28;7.63;;;4.78;;
78181;SDS011;67441;50.116;8.696;2023-06-24T00:23:21;6.25;;;5.15;;
78181;SDS011;67441;50.116;8.696;2023-06-24T00:23:50;5.93;;;5.00;;
78181;SDS011;67441;50.116;8.696;2023-06-24T00:24:42;7.07;;;4.90;;
78181;SDS011;67441;50.116;8.696;2023-06-24T00:25:33;7.60;;;5.30;;
78181;SDS011;67441;50.116;8.696;2023-06-24T00:26:24;5.97;;;5.28;;
78181;SDS011;67441;50.116;8.696;2023-06-24T00:27:15;7.00;;;5.03;;
78181;SDS011;67441;50.116;8.696;2023-06-24T00:28:07;6.03;;;5.43;;
78181;SDS011;67441;50.116;8.696;2023-06-24T00:28:58;6.55;;;5.20;;
78181;SDS011;67441;50.116;8.696;2023-06-24T00:29:49;7.25;;;5.57;;
78181;SDS011;67441;50.116;8.696;2023-06-24T00:30:14;7.63;;;5.90;;
78181;SDS011;67441;50.116;8.696;2023-06-24T00:31:05;6.88;;;5.55;;
78181;SDS011;67441;50.116;8.696;2023-06-24T00:31:55;8.18;;;6.15;;
78181;SDS011;67441;50.116;8.696;2023-06-24T00:32:46;7.22;;;5.72;;
78181;SDS011;67441;50.116;8.696;2023-06-24T00:33:38;6.25;;;5.28;;
78181;SDS011;67441;50.116;8.696;2023-06-24T00:34:29;6.55;;;5.40;;
78181;SDS011;67441;50.116;8.696;2023-06-24T00:35:25;8.00;;;5.82;;
78181;SDS011;67441;50.116;8.696;2023-06-24T00:36:15;8.07;;;5.72;;
78181;SDS011;67441;50.116;8.696;2023-06-24T00:37:06;6.97;;;5.57;;
78181;SDS011;67441;50.116;8.696;2023-06-24T00:37:31;7.90;;;5.35;;
78181;SDS011;67441;50.116;8.696;2023-06-24T00:38:23;7.40;;;5.30;;
78181;SDS011;67441;50.116;8.696;2023-06-24T00:39:16;8.55;;;5.65;;
78181;SDS011;67441;50.116;8.696;2023-06-24T00:40:07;8.25;;;5.22;;
78181;SDS011;67441;50.116;8.696;2023-06-24T00:40:36;6.93;;;5.97;;
78181;SDS011;67441;50.116;8.696;2023-06-24T00:41:03;7.50;;;5.25;;
78181;SDS011;67441;50.116;8.696;2023-06-24T00:41:32;6.70;;;5.10;;
78181;SDS011;67441;50.116;8.696;2023-06-24T00:41:58;7.18;;;5.72;;
78181;SDS011;67441;50.116;8.696;2023-06-24T00:42:49;7.07;;;4.97;;
78181;SDS011;67441;50.116;8.696;2023-06-24T00:43:40;6.35;;;4.63;;
78181;SDS011;67441;50.116;8.696;2023-06-24T00:44:31;6.95;;;5.60;;
78181;SDS011;67441;50.116;8.696;2023-06-24T00:45:22;7.55;;;5.70;;
78181;SDS011;67441;50.116;8.696;2023-06-24T00:46:13;6.30;;;5.38;;
78181;SDS011;67441;50.116;8.696;2023-06-24T00:46:40;7.05;;;5.20;;
78181;SDS011;67441;50.116;8.696;2023-06-24T00:47:31;6.47;;;5.40;;
78181;SDS011;67441;50.116;8.696;2023-06-24T00:48:23;6.75;;;5.47;;
78181;SDS011;67441;50.116;8.696;2023-06-24T00:49:15;6.55;;;5.30;;
78181;SDS011;67441;50.116;8.696;2023-06-24T00:50:10;6.63;;;5.43;;
78181;SDS011;67441;50.116;8.696;2023-06-24T00:50:37;7.55;;;5.50;;
78181;SDS011;67441;50.116;8.696;2023-06-24T00:51:27;7.43;;;6.00;;
78181;SDS011;67441;50.116;8.696;2023-06-24T00:51:55;6.38;;;5.35;;
78181;SDS011;67441;50.116;8.696;2023-06-24T00:52:46;6.47;;;5.30;;
78181;SDS011;67441;50.116;8.696;2023-06-24T00:53:12;7.63;;;5.50;;
78181;SDS011;67441;50.116;8.696;2023-06-24T00:54:03;6.75;;;5.30;;
78181;SDS011;67441;50.116;8.696;2023-06-24T00:54:56;7.93;;;5.22;;
78181;SDS011;67441;50.116;8.696;2023-06-24T00:55:46;7.63;;;5.90;;
78181;SDS011;67441;50.116;8.696;2023-06-24T00:56:38;7.25;;;5.15;;
78181;SDS011;67441;50.116;8.696;2023-06-24T00:57:29;7.30;;;5.70;;
78181;SDS011;67441;50.116;8.696;2023-06-24T00:58:20;6.78;;;5.65;;
78181;SDS011;67441;50.116;8.696;2023-06-24T00:59:13;7.82;;;6.03;;
78181;SDS011;67441;50.116;8.696;2023-06-24T00:59:40;7.20;;;5.35;;
78181;SDS011;67441;50.116;8.696;2023-06-24T01:00:08;6.55;;;5.28;;
78181;SDS011;67441;50.116;8.696;2023-06-24T01:00:38;7.88;;;5.47;;
78181;SDS011;67441;50.116;8.696;2023-06-24T01:01:32;8.00;;;5.32;;
78181;SDS011;67441;50.116;8.696;2023-06-24T01:02:00;6.25;;;5.35;;
78181;SDS011;67441;50.116;8.696;2023-06-24T01:02:26;6.53;;;5.22;;
78181;SDS011;67441;50.116;8.696;2023-06-24T01:02:52;8.43;;;5.75;;
78181;SDS011;67441;50.116;8.696;2023-06-24T01:03:43;7.18;;;5.55;;
78181;SDS011;67441;50.116;8.696;2023-06-24T01:04:34;7.82;;;5.38;;
78181;SDS011;67441;50.116;8.696;2023-06-24T01:05:25;6.22;;;5.25;;
78181;SDS011;67441;50.116;8.696;2023-06-24T01:05:51;7.28;;;5.75;;
78181;SDS011;67441;50.116;8.696;2023-06-24T01:06:18;7.78;;;5.50;;
78181;SDS011;67441;50.116;8.696;2023-06-24T01:07:09;6.53;;;5.80;;
78181;SDS011;67441;50.116;8.696;2023-06-24T01:08:02;7.78;;;5.72;;
78181;SDS011;67441;50.116;8.696;2023-06-24T01:08:53;6.95;;;5.32;;
78181;SDS011;67441;50.116;8.696;2023-06-24T01:09:21;6.65;;;5.93;;
78181;SDS011;67441;50.116;8.696;2023-06-24T01:10:12;7.38;;;5.82;;
78181;SDS011;67441;50.116;8.696;2023-06-24T01:11:02;6.15;;;5.50;;
78181;SDS011;67441;50.116;8.696;2023-06-24T01:11:54;7.20;;;5.75;;
78181;SDS011;67441;50.116;8.696;2023-06-24T01:12:45;7.13;;;5.63;;
78181;SDS011;67441;50.116;8.696;2023-06-24T01:13:35;7.00;;;5.18;;
78181;SDS011;67441;50.116;8.696;2023-06-24T01:14:26;6.90;;;5.65;;
78181;SDS011;67441;50.116;8.696;2023-06-24T01:15:18;9.13;;;5.47;;
78181;SDS011;67441;50.116;8.696;2023-06-24T01:15:47;7.05;;;5.38;;
78181;SDS011;67441;50.116;8.696;2023-06-24T01:16:48;7.03;;;5.63;;
78181;SDS011;67441;50.116;8.696;2023-06-24T01:17:16;7.65;;;5.95;;
78181;SDS011;67441;50.116;8.696;2023-06-24T01:18:46;7.47;;;5.63;;
78181;SDS011;67441;50.116;8.696;2023-06-24T01:20:10;7.40;;;5.93;;
78181;SDS011;67441;50.116;8.696;2023-06-24T01:21:16;7.68;;;5.93;;
78181;SDS011;67441;50.116;8.696;2023-06-24T01:23:04;7.00;;;6.22;;
78181;SDS011;67441;50.116;8.696;2023-06-24T01:24:41;6.80;;;5.60;;
78181;SDS011;67441;50.116;8.696;2023-06-24T01:27:01;8.98;;;6.07;;
78181;SDS011;67441;50.116;8.696;2023-06-24T01:27:44;7.88;;;6.05;;
78181;SDS011;67441;50.116;8.696;2023-06-24T01:28:30;7.05;;;5.78;;
78181;SDS011;67441;50.116;8.696;2023-06-24T01:29:42;6.78;;;5.85;;
78181;SDS011;67441;50.116;8.696;2023-06-24T01:31:48;7.28;;;5.65;;
78181;SDS011;67441;50.116;8.696;2023-06-24T01:32:29;7.15;;;5.35;;
78181;SDS011;67441;50.116;8.696;2023-06-24T01:33:02;6.22;;;5.63;;
78181;SDS011;67441;50.116;8.696;2023-06-24T01:33:42;7.13;;;6.07;;
78181;SDS011;67441;50.116;8.696;2023-06-24T01:34:25;9.18;;;5.82;;
78181;SDS011;67441;50.116;8.696;2023-06-24T01:35:00;7.35;;;5.90;;
78181;SDS011;67441;50.116;8.696;2023-06-24T01:35:31;7.38;;;6.00;;
78181;SDS011;67441;50.116;8.696;2023-06-24T01:35:59;7.35;;;6.30;;
78181;SDS011;67441;50.116;8.696;2023-06-24T01:36:26;8.60;;;5.80;;
78181;SDS011;67441;50.116;8.696;2023-06-24T01:37:02;7.78;;;6.22;;
78181;SDS011;67441;50.116;8.696;2023-06-24T01:37:33;6.75;;;5.82;;
78181;SDS011;67441;50.116;8.696;2023-06-24T01:38:05;8.48;;;5.70;;
78181;SDS011;67441;50.116;8.696;2023-06-24T01:38:36;7.85;;;5.88;;
78181;SDS011;67441;50.116;8.696;2023-06-24T01:39:08;6.75;;;5.75;;
78181;SDS011;67441;50.116;8.696;2023-06-24T01:39:36;6.75;;;5.38;;
78181;SDS011;67441;50.116;8.696;2023-06-24T01:40:06;9.07;;;5.95;;
78181;SDS011;67441;50.116;8.696;2023-06-24T01:40:40;6.80;;;5.75;;
78181;SDS011;67441;50.116;8.696;2023-06-24T01:41:09;7.95;;;6.13;;
78181;SDS011;67441;50.116;8.696;2023-06-24T01:41:42;8.93;;;5.85;;
78181;SDS011;67441;50.116;8.696;2023-06-24T01:42:11;8.65;;;5.70;;
78181;SDS011;67441;50.116;8.696;2023-06-24T01:42:42;7.07;;;5.80;;
78181;SDS011;67441;50.116;8.696;2023-06-24T01:43:09;7.85;;;5.80;;
78181;SDS011;67441;50.116;8.696;2023-06-24T01:43:36;7.55;;;6.00;;
78181;SDS011;67441;50.116;8.696;2023-06-24T01:44:05;7.10;;;5.63;;
78181;SDS011;67441;50.116;8.696;2023-06-24T01:44:35;7.40;;;5.78;;
78181;SDS011;67441;50.116;8.696;2023-06-24T01:45:06;7.72;;;5.88;;
78181;SDS011;67441;50.116;8.696;2023-06-24T01:45:38;8.13;;;5.90;;
78181;SDS011;67441;50.116;8.696;2023-06-24T01:46:07;8.85;;;6.10;;
78181;SDS011;67441;50.116;8.696;2023-06-24T01:46:34;8.38;;;5.90;;
78181;SDS011;67441;50.116;8.696;2023-06-24T01:47:27;7.35;;;5.95;;
78181;SDS011;67441;50.116;8.696;2023-06-24T01:47:59;6.82;;;5.97;;
78181;SDS011;67441;50.116;8.696;2023-06-24T01:48:28;8.00;;;6.15;;
78181;SDS011;67441;50.116;8.696;2023-06-24T01:49:01;7.95;;;5.85;;
78181;SDS011;67441;50.116;8.696;2023-06-24T01:49:28;6.80;;;5.65;;
78181;SDS011;67441;50.116;8.696;2023-06-24T01:49:56;7.28;;;5.70;;
78181;SDS011;67441;50.116;8.696;2023-06-24T01:50:25;8.50;;;5.45;;
78181;SDS011;67441;50.116;8.696;2023-06-24T01:51:01;8.63;;;6.13;;
78181;SDS011;67441;50.116;8.696;2023-06-24T01:51:31;8.02;;;6.15;;
78181;SDS011;67441;50.116;8.696;2023-06-24T01:52:00;8.63;;;6.18;;
78181;SDS011;67441;50.116;8.696;2023-06-24T01:52:28;8.02;;;6.22;;
78181;SDS011;67441;50.116;8.696;2023-06-24T01:52:55;6.80;;;5.70;;
78181;SDS011;67441;50.116;8.696;2023-06-24T01:53:21;8.27;;;6.13;;
78181;SDS011;67441;50.116;8.696;2023-06-24T01:53:49;7.90;;;6.25;;
78181;SDS011;67441;50.116;8.696;2023-06-24T01:54:17;7.75;;;5.85;;
78181;SDS011;67441;50.116;8.696;2023-06-24T01:54:45;7.90;;;6.78;;
78181;SDS011;67441;50.116;8.696;2023-06-24T01:55:14;8.15;;;6.05;;
78181;SDS011;67441;50.116;8.696;2023-06-24T01:55:44;7.40;;;6.60;;
78181;SDS011;67441;50.116;8.696;2023-06-24T01:56:12;7.80;;;6.13;;
78181;SDS011;67441;50.116;8.696;2023-06-24T01:56:40;9.18;;;6.13;;
78181;SDS011;67441;50.116;8.696;2023-06-24T01:57:08;6.63;;;5.40;;
78181;SDS011;67441;50.116;8.696;2023-06-24T01:57:34;8.05;;;6.13;;
78181;SDS011;67441;50.116;8.696;2023-06-24T01:58:04;7.45;;;5.55;;
78181;SDS011;67441;50.116;8.696;2023-06-24T01:58:30;8.27;;;6.13;;
78181;SDS011;67441;50.116;8.696;2023-06-24T01:59:00;8.32;;;6.15;;
78181;SDS011;67441;50.116;8.696;2023-06-24T01:59:28;6.97;;;5.75;;
78181;SDS011;67441;50.116;8.696;2023-06-24T01:59:54;7.13;;;5.55;;
78181;SDS011;67441;50.116;8.696;2023-06-24T02:00:21;6.10;;;5.45;;
78181;SDS011;67441;50.116;8.696;2023-06-24T02:00:48;7.13;;;5.85;;
78181;SDS011;67441;50.116;8.696;2023-06-24T02:01:16;6.90;;;5.97;;
78181;SDS011;67441;50.116;8.696;2023-06-24T02:02:08;6.38;;;5.47;;
78181;SDS011;67441;50.116;8.696;2023-06-24T02:02:35;7.97;;;6.20;;
78181;SDS011;67441;50.116;8.696;2023-06-24T02:03:02;7.85;;;5.97;;
78181;SDS011;67441;50.116;8.696;2023-06-24T02:03:30;6.93;;;5.47;;
78181;SDS011;67441;50.116;8.696;2023-06-24T02:03:57;6.90;;;5.70;;
78181;SDS011;67441;50.116;8.696;2023-06-24T02:04:26;7.47;;;5.55;;
78181;SDS011;67441;50.116;8.696;2023-06-24T02:04:56;8.13;;;5.38;;
78181;SDS011;67441;50.116;8.696;2023-06-24T02:05:23;7.43;;;5.88;;
78181;SDS011;67441;50.116;8.696;2023-06-24T02:05:50;8.20;;;6.55;;
78181;SDS011;67441;50.116;8.696;2023-06-24T02:06:18;6.88;;;5.95;;
78181;SDS011;67441;50.116;8.696;2023-06-24T02:06:45;9.43;;;6.30;;
78181;SDS011;67441;50.116;8.696;2023-06-24T02:07:12;8.20;;;5.82;;
78181;SDS011;67441;50.116;8.696;2023-06-24T02:07:38;6.97;;;5.47;;
78181;SDS011;67441;50.116;8.696;2023-06-24T02:08:05;7.13;;;5.88;;
78181;SDS011;67441;50.116;8.696;2023-06-24T02:08:33;7.60;;;5.70;;
78181;SDS011;67441;50.116;8.696;2023-06-24T02:09:02;7.07;;;5.68;;
78181;SDS011;67441;50.116;8.696;2023-06-24T02:09:29;7.53;;;5.93;;
78181;SDS011;67441;50.116;8.696;2023-06-24T02:09:57;6.63;;;5.72;;
78181;SDS011;67441;50.116;8.696;2023-06-24T02:10:24;6.72;;;5.72;;
78181;SDS011;67441;50.116;8.696;2023-06-24T02:10:51;8.10;;;6.28;;
78181;SDS011;67441;50.116;8.696;2023-06-24T02:11:17;7.35;;;5.47;;
78181;SDS011;67441;50.116;8.696;2023-06-24T02:11:44;6.95;;;5.63;;
78181;SDS011;67441;50.116;8.696;2023-06-24T02:12:11;7.43;;;5.78;;
78181;SDS011;67441;50.116;8.696;2023-06-24T02:12:37;7.95;;;6.20;;
78181;SDS011;67441;50.116;8.696;2023-06-24T02:13:04;8.00;;;5.90;;
78181;SDS011;67441;50.116;8.696;2023-06-24T02:13:32;6.22;;;5.47;;
78181;SDS011;67441;50.116;8.696;2023-06-24T02:14:03;8.95;;;5.97;;
78181;SDS011;67441;50.116;8.696;2023-06-24T02:14:30;8.07;;;5.90;;
78181;SDS011;67441;50.116;8.696;2023-06-24T02:14:56;8.93;;;5.82;;
78181;SDS011;67441;50.116;8.696;2023-06-24T02:15:23;9.88;;;6.63;;
78181;SDS011;67441;50.116;8.696;2023-06-24T02:15:52;7.75;;;6.30;;
78181;SDS011;67441;50.116;8.696;2023-06-24T02:16:44;8.18;;;6.43;;
78181;SDS011;67441;50.116;8.696;2023-06-24T02:17:11;6.70;;;6.00;;
78181;SDS011;67441;50.116;8.696;2023-06-24T02:17:38;7.28;;;6.05;;
78181;SDS011;67441;50.116;8.696;2023-06-24T02:18:04;7.97;;;6.05;;
78181;SDS011;67441;50.116;8.696;2023-06-24T02:18:31;7.78;;;5.80;;
78181;SDS011;67441;50.116;8.696;2023-06-24T02:18:57;7.78;;;5.95;;
78181;SDS011;67441;50.116;8.696;2023-06-24T02:19:54;7.00;;;5.70;;
78181;SDS011;67441;50.116;8.696;2023-06-24T02:20:20;6.85;;;5.78;;
78181;SDS011;67441;50.116;8.696;2023-06-24T02:21:13;8.32;;;5.93;;
78181;SDS011;67441;50.116;8.696;2023-06-24T02:21:41;7.20;;;6.32;;
78181;SDS011;67441;50.116;8.696;2023-06-24T02:22:07;7.88;;;6.22;;
78181;SDS011;67441;50.116;8.696;2023-06-24T02:22:35;8.30;;;5.75;;
78181;SDS011;67441;50.116;8.696;2023-06-24T02:23:03;7.65;;;6.00;;
78181;SDS011;67441;50.116;8.696;2023-06-24T02:23:30;7.18;;;5.82;;
78181;SDS011;67441;50.116;8.696;2023-06-24T02:23:56;8.82;;;6.53;;
78181;SDS011;67441;50.116;8.696;2023-06-24T02:24:23;7.40;;;6.25;;
78181;SDS011;67441;50.116;8.696;2023-06-24T02:24:49;8.30;;;5.95;;
78181;SDS011;67441;50.116;8.696;2023-06-24T02:25:15;6.57;;;5.93;;
78181;SDS011;67441;50.116;8.696;2023-06-24T02:26:07;6.85;;;5.97;;
78181;SDS011;67441;50.116;8.696;2023-06-24T02:26:34;8.60;;;6.35;;
78181;SDS011;67441;50.116;8.696;2023-06-24T02:27:02;6.85;;;5.97;;
78181;SDS011;67441;50.116;8.696;2023-06-24T02:27:28;6.90;;;5.72;;
78181;SDS011;67441;50.116;8.696;2023-06-24T02:27:54;7.55;;;5.95;;
78181;SDS011;67441;50.116;8.696;2023-06-24T02:28:46;6.63;;;5.85;;
78181;SDS011;67441;50.116;8.696;2023-06-24T02:29:38;6.88;;;5.95;;
78181;SDS011;67441;50.116;8.696;2023-06-24T02:30:04;8.27;;;6.80;;
78181;SDS011;67441;50.116;8.696;2023-06-24T02:30:31;7.65;;;6.20;;
78181;SDS011;67441;50.116;8.696;2023-06-24T02:30:59;6.68;;;5.65;;
78181;SDS011;67441;50.116;8.696;2023-06-24T02:31:50;7.53;;;5.90;;
78181;SDS011;67441;50.116;8.696;2023-06-24T02:32:40;8.15;;;6.38;;
78181;SDS011;67441;50.116;8.696;2023-06-24T02:33:31;6.85;;;5.90;;
78181;SDS011;67441;50.116;8.696;2023-06-24T02:34:23;8.98;;;6.68;;
78181;SDS011;67441;50.116;8.696;2023-06-24T02:34:49;8.13;;;6.68;;
78181;SDS011;67441;50.116;8.696;2023-06-24T02:35:39;7.07;;;6.38;;
78181;SDS011;67441;50.116;8.696;2023-06-24T02:36:06;8.48;;;6.50;;
78181;SDS011;67441;50.116;8.696;2023-06-24T02:36:57;8.90;;;6.30;;
78181;SDS011;67441;50.116;8.696;2023-06-24T02:37:47;7.50;;;6.50;;
78181;SDS011;67441;50.116;8.696;2023-06-24T02:38:38;8.05;;;6.32;;
78181;SDS011;67441;50.116;8.696;2023-06-24T02:39:03;7.43;;;6.65;;
78181;SDS011;67441;50.116;8.696;2023-06-24T02:39:54;7.47;;;6.63;;
78181;SDS011;67441;50.116;8.696;2023-06-24T02:40:20;7.53;;;6.82;;
78181;SDS011;67441;50.116;8.696;2023-06-24T02:41:11;6.97;;;6.15;;
78181;SDS011;67441;50.116;8.696;2023-06-24T02:42:02;8.90;;;6.53;;
78181;SDS011;67441;50.116;8.696;2023-06-24T02:42:53;7.88;;;6.63;;
78181;SDS011;67441;50.116;8.696;2023-06-24T02:43:43;7.72;;;6.30;;
78181;SDS011;67441;50.116;8.696;2023-06-24T02:44:34;8.02;;;6.95;;
78181;SDS011;67441;50.116;8.696;2023-06-24T02:45:25;9.45;;;6.32;;
78181;SDS011;67441;50.116;8.696;2023-06-24T02:45:51;9.85;;;7.00;;
78181;SDS011;67441;50.116;8.696;2023-06-24T02:46:18;8.00;;;6.65;;
78181;SDS011;67441;50.116;8.696;2023-06-24T02:46:45;7.40;;;6.40;;
78181;SDS011;67441;50.116;8.696;2023-06-24T02:47:12;7.35;;;6.47;;
78181;SDS011;67441;50.116;8.696;2023-06-24T02:47:40;7.50;;;6.35;;
78181;SDS011;67441;50.116;8.696;2023-06-24T02:48:10;7.93;;;6.30;;
78181;SDS011;67441;50.116;8.696;2023-06-24T02:48:37;7.75;;;6.38;;
78181;SDS011;67441;50.116;8.696;2023-06-24T02:49:05;8.23;;;6.40;;
78181;SDS011;67441;50.116;8.696;2023-06-24T02:49:56;8.32;;;6.20;;
78181;SDS011;67441;50.116;8.696;2023-06-24T02:50:22;8.13;;;6.10;;
78181;SDS011;67441;50.116;8.696;2023-06-24T02:50:49;7.32;;;5.93;;
78181;SDS011;67441;50.116;8.696;2023-06-24T02:51:15;10.52;;;6.60;;
78181;SDS011;67441;50.116;8.696;2023-06-24T02:52:06;8.77;;;6.50;;
78181;SDS011;67441;50.116;8.696;2023-06-24T02:52:57;7.82;;;5.95;;
78181;SDS011;67441;50.116;8.696;2023-06-24T02:53:23;8.38;;;6.68;;
78181;SDS011;67441;50.116;8.696;2023-06-24T02:54:14;7.35;;;6.05;;
78181;SDS011;67441;50.116;8.696;2023-06-24T02:55:06;9.55;;;7.10;;
78181;SDS011;67441;50.116;8.696;2023-06-24T02:55:58;8.30;;;6.03;;
78181;SDS011;67441;50.116;8.696;2023-06-24T02:56:24;6.57;;;5.88;;
78181;SDS011;67441;50.116;8.696;2023-06-24T02:56:51;8.48;;;6.55;;
78181;SDS011;67441;50.116;8.696;2023-06-24T02:57:45;7.38;;;6.53;;
78181;SDS011;67441;50.116;8.696;2023-06-24T02:58:11;8.02;;;6.53;;
78181;SDS011;67441;50.116;8.696;2023-06-24T02:59:04;8.38;;;6.38;;
78181;SDS011;67441;50.116;8.696;2023-06-24T02:59:55;8.52;;;6.78;;
78181;SDS011;67441;50.116;8.696;2023-06-24T03:00:46;10.63;;;7.47;;
78181;SDS011;67441;50.116;8.696;2023-06-24T03:01:37;7.38;;;6.15;;
78181;SDS011;67441;50.116;8.696;2023-06-24T03:02:10;8.73;;;6.63;;
78181;SDS011;67441;50.116;8.696;2023-06-24T03:02:36;8.48;;;6.70;;
78181;SDS011;67441;50.116;8.696;2023-06-24T03:03:28;8.75;;;6.60;;
78181;SDS011;67441;50.116;8.696;2023-06-24T03:03:54;7.18;;;6.47;;
78181;SDS011;67441;50.116;8.696;2023-06-24T03:04:21;7.90;;;6.72;;
78181;SDS011;67441;50.116;8.696;2023-06-24T03:05:13;9.13;;;6.45;;
78181;SDS011;67441;50.116;8.696;2023-06-24T03:05:40;8.07;;;6.25;;
78181;SDS011;67441;50.116;8.696;2023-06-24T03:06:31;7.45;;;6.15;;
78181;SDS011;67441;50.116;8.696;2023-06-24T03:06:57;8.57;;;6.40;;
78181;SDS011;67441;50.116;8.696;2023-06-24T03:07:24;7.97;;;6.65;;
78181;SDS011;67441;50.116;8.696;2023-06-24T03:08:15;9.38;;;6.90;;
78181;SDS011;67441;50.116;8.696;2023-06-24T03:09:06;7.00;;;6.00;;
78181;SDS011;67441;50.116;8.696;2023-06-24T03:09:59;7.97;;;6.72;;
78181;SDS011;67441;50.116;8.696;2023-06-24T03:10:56;6.88;;;5.93;;
78181;SDS011;67441;50.116;8.696;2023-06-24T03:11:22;7.93;;;6.63;;
78181;SDS011;67441;50.116;8.696;2023-06-24T03:12:12;7.97;;;6.00;;
78181;SDS011;67441;50.116;8.696;2023-06-24T03:13:03;8.73;;;6.78;;
78181;SDS011;67441;50.116;8.696;2023-06-24T03:13:54;10.63;;;7.97;;
78181;SDS011;67441;50.116;8.696;2023-06-24T03:14:44;10.48;;;7.38;;
78181;SDS011;67441;50.116;8.696;2023-06-24T03:15:35;11.38;;;8.48;;
78181;SDS011;67441;50.116;8.696;2023-06-24T03:16:26;8.63;;;6.93;;
78181;SDS011;67441;50.116;8.696;2023-06-24T03:17:16;7.63;;;6.47;;
78181;SDS011;67441;50.116;8.696;2023-06-24T03:18:07;7.40;;;6.30;;
78181;SDS011;67441;50.116;8.696;2023-06-24T03:18:58;10.95;;;7.65;;
78181;SDS011;67441;50.116;8.696;2023-06-24T03:19:48;8.82;;;6.78;;
78181;SDS011;67441;50.116;8.696;2023-06-24T03:20:39;8.52;;;6.95;;
78181;SDS011;67441;50.116;8.696;2023-06-24T03:21:30;7.18;;;6.47;;
78181;SDS011;67441;50.116;8.696;2023-06-24T03:22:22;9.05;;;7.25;;
78181;SDS011;67441;50.116;8.696;2023-06-24T03:22:49;8.63;;;6.90;;
78181;SDS011;67441;50.116;8.696;2023-06-24T03:23:40;8.50;;;6.63;;
78181;SDS011;67441;50.116;8.696;2023-06-24T03:24:30;8.65;;;7.07;;
78181;SDS011;67441;50.116;8.696;2023-06-24T03:25:22;9.48;;;6.97;;
78181;SDS011;67441;50.116;8.696;2023-06-24T03:26:12;7.82;;;6.25;;
78181;SDS011;67441;50.116;8.696;2023-06-24T03:27:03;8.65;;;6.72;;
78181;SDS011;67441;50.116;8.696;2023-06-24T03:27:56;6.85;;;6.00;;
78181;SDS011;67441;50.116;8.696;2023-06-24T03:28:46;8.98;;;6.47;;
78181;SDS011;67441;50.116;8.696;2023-06-24T03:29:37;7.30;;;6.38;;
78181;SDS011;67441;50.116;8.696;2023-06-24T03:30:27;12.05;;;9.05;;
78181;SDS011;67441;50.116;8.696;2023-06-24T03:31:18;11.43;;;7.57;;
78181;SDS011;67441;50.116;8.696;2023-06-24T03:31:48;18.15;;;11.57;;
78181;SDS011;67441;50.116;8.696;2023-06-24T03:32:38;8.85;;;7.20;;
78181;SDS011;67441;50.116;8.696;2023-06-24T03:33:29;7.80;;;6.13;;
78181;SDS011;67441;50.116;8.696;2023-06-24T03:34:19;7.80;;;6.50;;
78181;SDS011;67441;50.116;8.696;2023-06-24T03:35:10;8.35;;;6.30;;
78181;SDS011;67441;50.116;8.696;2023-06-24T03:36:00;8.32;;;6.63;;
78181;SDS011;67441;50.116;8.696;2023-06-24T03:36:51;7.15;;;6.10;;
78181;SDS011;67441;50.116;8.696;2023-06-24T03:37:42;9.00;;;6.30;;
78181;SDS011;67441;50.116;8.696;2023-06-24T03:38:32;7.88;;;6.63;;
78181;SDS011;67441;50.116;8.696;2023-06-24T03:39:23;8.40;;;6.40;;
78181;SDS011;67441;50.116;8.696;2023-06-24T03:40:13;9.05;;;5.90;;
78181;SDS011;67441;50.116;8.696;2023-06-24T03:41:04;7.75;;;6.72;;
78181;SDS011;67441;50.116;8.696;2023-06-24T03:41:54;8.65;;;6.65;;
78181;SDS011;67441;50.116;8.696;2023-06-24T03:42:45;8.23;;;6.68;;
78181;SDS011;67441;50.116;8.696;2023-06-24T03:43:35;7.90;;;6.50;;
78181;SDS011;67441;50.116;8.696;2023-06-24T03:44:26;7.25;;;6.13;;
78181;SDS011;67441;50.116;8.696;2023-06-24T03:45:17;7.45;;;6.50;;
78181;SDS011;67441;50.116;8.696;2023-06-24T03:46:07;7.63;;;6.80;;
78181;SDS011;67441;50.116;8.696;2023-06-24T03:46:58;8.05;;;6.97;;
78181;SDS011;67441;50.116;8.696;2023-06-24T03:47:48;8.73;;;6.95;;
78181;SDS011;67441;50.116;8.696;2023-06-24T03:48:39;7.97;;;7.15;;
78181;SDS011;67441;50.116;8.696;2023-06-24T03:49:29;8.00;;;7.20;;
78181;SDS011;67441;50.116;8.696;2023-06-24T03:50:20;8.40;;;6.40;;
78181;SDS011;67441;50.116;8.696;2023-06-24T03:51:10;9.80;;;8.02;;
78181;SDS011;67441;50.116;8.696;2023-06-24T03:52:01;8.88;;;7.15;;
78181;SDS011;67441;50.116;8.696;2023-06-24T03:52:52;8.05;;;7.20;;
78181;SDS011;67441;50.116;8.696;2023-06-24T03:53:42;8.55;;;7.50;;
78181;SDS011;67441;50.116;8.696;2023-06-24T03:54:33;9.20;;;7.13;;
78181;SDS011;67441;50.116;8.696;2023-06-24T03:55:23;8.98;;;7.63;;
78181;SDS011;67441;50.116;8.696;2023-06-24T03:56:14;9.32;;;7.20;;
78181;SDS011;67441;50.116;8.696;2023-06-24T03:57:04;9.55;;;7.70;;
78181;SDS011;67441;50.116;8.696;2023-06-24T03:57:55;10.48;;;7.97;;
78181;SDS011;67441;50.116;8.696;2023-06-24T03:58:46;9.43;;;7.53;;
78181;SDS011;67441;50.116;8.696;2023-06-24T03:59:37;10.30;;;8.35;;
78181;SDS011;67441;50.116;8.696;2023-06-24T04:00:37;9.50;;;7.78;;
78181;SDS011;67441;50.116;8.696;2023-06-24T04:01:05;7.90;;;7.10;;
78181;SDS011;67441;50.116;8.696;2023-06-24T04:01:56;8.77;;;7.80;;
78181;SDS011;67441;50.116;8.696;2023-06-24T04:02:47;9.27;;;7.70;;
78181;SDS011;67441;50.116;8.696;2023-06-24T04:03:37;8.77;;;7.75;;
78181;SDS011;67441;50.116;8.696;2023-06-24T04:04:28;10.68;;;8.13;;
78181;SDS011;67441;50.116;8.696;2023-06-24T04:05:21;9.05;;;7.88;;
78181;SDS011;67441;50.116;8.696;2023-06-24T04:06:12;9.32;;;7.35;;
78181;SDS011;67441;50.116;8.696;2023-06-24T04:07:03;10.43;;;7.75;;
78181;SDS011;67441;50.116;8.696;2023-06-24T04:07:30;10.30;;;7.80;;
78181;SDS011;67441;50.116;8.696;2023-06-24T04:08:21;9.18;;;7.72;;
78181;SDS011;67441;50.116;8.696;2023-06-24T04:08:47;9.50;;;7.47;;